createdAt,value
2022-09-11T06:13:01.037Z,98483.4
2022-09-11T06:18:47.848Z,98483.9
2022-09-11T06:24:33.580Z,98479.9
2022-09-11T06:30:32.959Z,98479.8
2022-09-11T06:37:03.460Z,98482.1
2022-09-11T06:42:45.960Z,98478.5
2022-09-11T06:48:44.392Z,98480.6
2022-09-11T06:54:31.403Z,98478.7
2022-09-11T07:00:41.037Z,98473.7
2022-09-11T07:06:41.756Z,98479
2022-09-11T07:13:04.877Z,98474.8
2022-09-11T07:18:44.677Z,98475.9
2022-09-11T07:24:23.073Z,98473.3
2022-09-11T07:29:57.499Z,98475.9
2022-09-11T07:35:32.560Z,98479.7
2022-09-11T07:41:43.332Z,98476.5
2022-09-11T07:47:16.378Z,98476.1
2022-09-11T07:52:51.797Z,98463.8
2022-09-11T07:58:26.765Z,98458
2022-09-11T08:04:03.124Z,98451
2022-09-11T08:09:39.846Z,98459
2022-09-11T08:15:15.034Z,98454.1
2022-09-11T08:20:51.161Z,98453.7
2022-09-11T08:26:26.116Z,98450.3
2022-09-11T08:32:03.083Z,98451.9
2022-09-11T08:37:37.990Z,98454.1
2022-09-11T08:43:13.886Z,98453.2
2022-09-11T08:48:49.097Z,98453.1
2022-09-11T08:54:24.087Z,98450.7
2022-09-11T08:59:59.102Z,98444.1
2022-09-11T09:05:34.232Z,98447.1
2022-09-11T09:11:09.378Z,98449.1
2022-09-11T09:16:45.708Z,98449.7
2022-09-11T09:22:21.783Z,98453.8
2022-09-11T09:27:56.951Z,98442.6
2022-09-11T09:33:31.893Z,98447.6
2022-09-11T09:39:07.767Z,98449.6
2022-09-11T09:44:42.889Z,98447.6
2022-09-11T09:50:17.896Z,98445.6
2022-09-11T09:55:52.809Z,98442.6
2022-09-11T10:01:28.218Z,98434.6
2022-09-11T10:07:03.771Z,98438.3
2022-09-11T10:12:39.010Z,98438.1
2022-09-11T10:18:13.930Z,98432.5
2022-09-11T10:23:49.950Z,98428.5
2022-09-11T10:29:24.838Z,98425.9
2022-09-11T10:35:00.659Z,98413.8
2022-09-11T10:40:35.631Z,98409.4
2022-09-11T10:46:11.090Z,98402.2
2022-09-11T10:51:48.190Z,98398.2
2022-09-11T10:57:24.120Z,98392.6
2022-09-11T11:02:58.988Z,98393.7
2022-09-11T11:08:34.484Z,98382.7
2022-09-11T11:14:09.546Z,98374.7
2022-09-11T11:19:44.680Z,98372.5
2022-09-11T11:25:19.715Z,98368.3
2022-09-11T11:30:53.864Z,98367.7
2022-09-11T11:36:28.852Z,98366.8
2022-09-11T11:42:04.615Z,98362.7
2022-09-11T11:47:39.512Z,98364.8
2022-09-11T11:53:14.522Z,98365.1
2022-09-11T11:58:49.542Z,98356.9
2022-09-11T12:04:24.191Z,98349.6
2022-09-11T12:09:59.102Z,98346.9
2022-09-11T12:15:34.304Z,98337.6
2022-09-11T12:21:09.321Z,98340.3
2022-09-11T12:26:44.632Z,98340.2
2022-09-11T12:32:20.023Z,98331.8
2022-09-11T12:37:55.336Z,98327.2
2022-09-11T12:43:30.222Z,98329.9
2022-09-11T12:49:23.692Z,98321.5
2022-09-11T12:54:59.144Z,98311.7
2022-09-11T13:00:34.075Z,98304
2022-09-11T13:06:09.451Z,98294.4
2022-09-11T13:11:44.634Z,98290.2
2022-09-11T13:17:19.692Z,98279.5
2022-09-11T13:22:59.035Z,98270.8
2022-09-11T13:28:34.165Z,98264.2
2022-09-11T13:34:10.077Z,98262.9
2022-09-11T13:39:45.512Z,98259.7
2022-09-11T13:45:21.045Z,98246.3
2022-09-11T13:50:56.352Z,98234.8
2022-09-11T13:56:31.215Z,98230.5
2022-09-11T14:02:06.511Z,98221
2022-09-11T14:07:42.088Z,98208.6
2022-09-11T14:13:17.507Z,98203.4
2022-09-11T14:18:52.665Z,98197.9
2022-09-11T14:24:27.707Z,98199.7
2022-09-11T14:30:02.758Z,98196.8
2022-09-11T14:35:37.909Z,98188
2022-09-11T14:41:12.881Z,98181.6
2022-09-11T14:46:47.975Z,98178
2022-09-11T14:52:22.835Z,98172.8
2022-09-11T14:57:57.799Z,98166.3
2022-09-11T15:03:33.523Z,98164.6
2022-09-11T15:09:09.630Z,98164.3
2022-09-11T15:14:59.872Z,98164
2022-09-11T15:20:36.999Z,98159.4
2022-09-11T15:26:11.538Z,98151.6
2022-09-11T15:31:46.388Z,98151
2022-09-11T15:37:21.285Z,98148.4
2022-09-11T15:42:55.874Z,98138.5
2022-09-11T15:48:30.586Z,98139.2
2022-09-11T15:54:06.069Z,98136.7
2022-09-11T15:59:40.996Z,98126.1
2022-09-11T16:05:15.869Z,98132.1
2022-09-11T16:10:51.097Z,98127.1
2022-09-11T16:16:26.092Z,98128.4
2022-09-11T16:22:01.729Z,98123.6
2022-09-11T16:27:36.700Z,98115.3
2022-09-11T16:33:11.495Z,98114.9
2022-09-11T16:38:47.368Z,98109.2
2022-09-11T16:44:22.072Z,98104.4
2022-09-11T16:50:12.371Z,98102.6
2022-09-11T16:55:47.373Z,98099.5
2022-09-11T17:01:23.091Z,98094.8
2022-09-11T17:06:59.303Z,98086.5
2022-09-11T17:12:34.268Z,98078.3
2022-09-11T17:18:08.978Z,98077
2022-09-11T17:23:43.749Z,98070
2022-09-11T17:29:18.743Z,98062.3
2022-09-11T17:34:54.289Z,98054.7
2022-09-11T17:40:29.068Z,98054.4
2022-09-11T17:46:04.715Z,98053.3
2022-09-11T17:51:40.781Z,98050.6
2022-09-11T17:57:15.483Z,98046.9
2022-09-11T18:02:50.548Z,98044.9
2022-09-11T18:08:25.865Z,98042.7
2022-09-11T18:14:01.181Z,98039.1
2022-09-11T18:19:36.026Z,98035.3
2022-09-11T18:25:16.763Z,98033.1
2022-09-11T18:30:54.877Z,98028.4
2022-09-11T18:36:29.852Z,98030.3
2022-09-11T18:42:04.641Z,98035.6
2022-09-11T18:47:39.431Z,98035.1
2022-09-11T18:53:14.428Z,98033.5
2022-09-11T18:58:49.434Z,98029.1
2022-09-11T19:04:24.602Z,98026.9
2022-09-11T19:10:00.822Z,98032.8
2022-09-11T19:15:35.699Z,98038.4
2022-09-11T19:21:10.511Z,98039.6
2022-09-11T19:26:45.698Z,98037.4
2022-09-11T19:32:20.474Z,98036.8
2022-09-11T19:37:55.510Z,98036.9
2022-09-11T19:43:31.975Z,98037.8
2022-09-11T19:49:08.032Z,98040.6
2022-09-11T19:54:42.593Z,98047.2
2022-09-11T20:00:17.487Z,98046.8
2022-09-11T20:05:52.219Z,98044
2022-09-11T20:11:26.907Z,98045.5
2022-09-11T20:17:01.850Z,98047.9
2022-09-11T20:22:37.648Z,98048.1
2022-09-11T20:28:13.483Z,98047.7
2022-09-11T20:33:48.499Z,98050.7
2022-09-11T20:39:23.499Z,98043.4
2022-09-11T20:45:01.270Z,98043
2022-09-11T20:50:37.142Z,98048.1
2022-09-11T20:56:11.935Z,98043.3
2022-09-11T21:01:47.338Z,98044.2
2022-09-11T21:07:23.042Z,98033.8
2022-09-11T21:12:57.873Z,98038.6
2022-09-11T21:18:32.779Z,98044.1
2022-09-11T21:24:07.552Z,98045.1
2022-09-11T21:29:42.468Z,98041.4
2022-09-11T21:35:17.240Z,98043.9
2022-09-11T21:40:52.071Z,98043.1
2022-09-11T21:46:27.273Z,98041.8
2022-09-11T21:52:02.493Z,98038.3
2022-09-11T21:57:37.474Z,98030.7
2022-09-11T22:03:12.433Z,98032.3
2022-09-11T22:08:47.247Z,98034.9
2022-09-11T22:14:22.333Z,98040
2022-09-11T22:19:58.054Z,98041.7
2022-09-11T22:25:32.878Z,98047.9
2022-09-11T22:31:09.225Z,98048.2
2022-09-11T22:36:44.545Z,98056.2
2022-09-11T22:42:19.498Z,98051.8
2022-09-11T22:47:55.438Z,98049.6
2022-09-11T22:53:30.148Z,98045.4
2022-09-11T22:59:05.116Z,98040.7
2022-09-11T23:04:40.200Z,98035.2
2022-09-11T23:10:15.969Z,98032.4
2022-09-11T23:15:50.883Z,98027.5
2022-09-11T23:21:26.046Z,98027
2022-09-11T23:27:01.117Z,98016.6
2022-09-11T23:32:57.587Z,98010.4
2022-09-11T23:38:30.437Z,98011.9
2022-09-11T23:44:06.492Z,98008.9
2022-09-11T23:49:41.429Z,98004
2022-09-11T23:55:16.256Z,98003.5
